Pagrindinis puslapis
METAR-TAF:

METAR-TAF

Oro uostai :

Stokholmas-Arlanda, Švedija

platuma: 59-39N, ilguma: 017-57E, Aukštis: 38 m

Dabartinis oras

Ataskaita buvo paskelbta 30 minutes, ne 10:20 UTC
Vėjas 5 kt iš Rytų/Pietryčių
Temperatūra 12°C
Drėgmė 88%
Slėgis 1004 hPa
Matomumas 10 km arba daugiau
Mažai debesys ne aukštis 1300 ft
Su prošvaistėmis ne aukštis 1800 ft
Apsiniaukę ne aukštis 4400 ft

METAR: ESSA 021020Z 11005KT 9999 FEW013 BKN018 OVC044 12/10 Q1004 NOSIG

Laikas: 12:50 (10:50 UTC)

Prognozė

Ataskaita buvo paskelbta 2 valandos ir 20 minutes, ne 08:30 UTC
Prognozė galioja nuo 02 metu 09 UTC su 03 metu 09 UTC
Vėjas 6 kt iš Rytų
Matomumas 10 km arba daugiau
Išsisklaidę debesys ne aukštis 1500 ft
Laikinai
nuo 02 metu 09 UTC su 02 metu 18 UTC
Su prošvaistėmis ne aukštis 1300 ft
Tikimybė 40%
nuo 03 metu 00 UTC su 03 metu 07 UTC
Matomumas: 0500 m
Su prošvaistėmis ne aukštis 300 ft
Rūkas lopais

TAF: ESSA 020830Z 0209/0309 10006KT 9999 SCT015 TEMPO 0209/0218 BKN013 PROB40 0300/0307 0500 BCFG BKN003

Orai ataskaitas ir orų prognozės (METAR, TAF).

turimą stotys yra geltonos ir raudonos taškus žemėlapyje.

Perkelti pele per norėdami pamatyti stoties vardą.

Tada spustelėkite, norėdami matyti oro stebėjimo ir prognozės.

Norėdami pakeisti žemėlapį: spustelėkite ant žalios mygtukų su juodo kryžiaus žemyn,; žalią mygtuką su brūkšneliu, jei norite nutolinti; arba žalių rodyklių gretimoms žemėlapius.


METAR-TAF: